sensor_id;sensor_type;location;lat;lon;timestamp;P1;durP1;ratioP1;P2;durP2;ratioP2
13641;SDS011;6894;52.196;9.904;2023-02-28T00:01:38;2.93;;;2.60;;
13641;SDS011;6894;52.196;9.904;2023-02-28T00:04:05;5.47;;;3.60;;
13641;SDS011;6894;52.196;9.904;2023-02-28T00:06:34;7.53;;;3.70;;
13641;SDS011;6894;52.196;9.904;2023-02-28T00:09:02;6.90;;;4.33;;
13641;SDS011;6894;52.196;9.904;2023-02-28T00:11:29;4.97;;;3.53;;
13641;SDS011;6894;52.196;9.904;2023-02-28T00:13:55;5.97;;;3.63;;
13641;SDS011;6894;52.196;9.904;2023-02-28T00:16:22;3.83;;;3.10;;
13641;SDS011;6894;52.196;9.904;2023-02-28T00:18:49;6.37;;;5.00;;
13641;SDS011;6894;52.196;9.904;2023-02-28T00:21:17;4.17;;;3.33;;
13641;SDS011;6894;52.196;9.904;2023-02-28T00:23:45;4.83;;;3.67;;
13641;SDS011;6894;52.196;9.904;2023-02-28T00:26:13;3.90;;;2.80;;
13641;SDS011;6894;52.196;9.904;2023-02-28T00:28:40;5.13;;;3.57;;
13641;SDS011;6894;52.196;9.904;2023-02-28T00:31:06;4.93;;;3.00;;
13641;SDS011;6894;52.196;9.904;2023-02-28T00:33:33;5.17;;;3.17;;
13641;SDS011;6894;52.196;9.904;2023-02-28T00:36:01;4.20;;;3.30;;
13641;SDS011;6894;52.196;9.904;2023-02-28T00:38:29;5.27;;;3.70;;
13641;SDS011;6894;52.196;9.904;2023-02-28T00:40:56;6.27;;;3.83;;
13641;SDS011;6894;52.196;9.904;2023-02-28T00:43:24;6.50;;;3.93;;
13641;SDS011;6894;52.196;9.904;2023-02-28T00:45:51;4.43;;;3.50;;
13641;SDS011;6894;52.196;9.904;2023-02-28T00:48:18;5.07;;;3.53;;
13641;SDS011;6894;52.196;9.904;2023-02-28T00:50:47;4.83;;;3.43;;
13641;SDS011;6894;52.196;9.904;2023-02-28T00:53:14;3.90;;;2.97;;
13641;SDS011;6894;52.196;9.904;2023-02-28T00:55:41;5.77;;;3.13;;
13641;SDS011;6894;52.196;9.904;2023-02-28T00:58:08;6.73;;;3.30;;
13641;SDS011;6894;52.196;9.904;2023-02-28T01:00:36;5.00;;;2.83;;
13641;SDS011;6894;52.196;9.904;2023-02-28T01:03:02;5.27;;;3.17;;
13641;SDS011;6894;52.196;9.904;2023-02-28T01:05:29;3.93;;;2.87;;
13641;SDS011;6894;52.196;9.904;2023-02-28T01:07:56;3.50;;;3.17;;
13641;SDS011;6894;52.196;9.904;2023-02-28T01:10:23;5.80;;;4.03;;
13641;SDS011;6894;52.196;9.904;2023-02-28T01:12:50;7.33;;;4.07;;
13641;SDS011;6894;52.196;9.904;2023-02-28T01:15:17;4.97;;;3.60;;
13641;SDS011;6894;52.196;9.904;2023-02-28T01:17:45;3.60;;;2.60;;
13641;SDS011;6894;52.196;9.904;2023-02-28T01:20:12;5.20;;;3.20;;
13641;SDS011;6894;52.196;9.904;2023-02-28T01:22:39;4.97;;;3.20;;
13641;SDS011;6894;52.196;9.904;2023-02-28T01:25:06;4.37;;;3.73;;
13641;SDS011;6894;52.196;9.904;2023-02-28T01:27:34;3.90;;;3.50;;
13641;SDS011;6894;52.196;9.904;2023-02-28T01:30:00;5.33;;;3.00;;
13641;SDS011;6894;52.196;9.904;2023-02-28T01:32:27;4.23;;;3.07;;
13641;SDS011;6894;52.196;9.904;2023-02-28T01:34:55;4.80;;;3.20;;
13641;SDS011;6894;52.196;9.904;2023-02-28T01:37:22;4.60;;;2.80;;
13641;SDS011;6894;52.196;9.904;2023-02-28T01:39:49;6.90;;;3.43;;
13641;SDS011;6894;52.196;9.904;2023-02-28T01:42:16;6.90;;;3.07;;
13641;SDS011;6894;52.196;9.904;2023-02-28T01:44:59;3.33;;;2.77;;
13641;SDS011;6894;52.196;9.904;2023-02-28T01:47:29;3.80;;;3.00;;
13641;SDS011;6894;52.196;9.904;2023-02-28T01:50:00;4.73;;;2.90;;
13641;SDS011;6894;52.196;9.904;2023-02-28T01:52:30;4.17;;;3.23;;
13641;SDS011;6894;52.196;9.904;2023-02-28T01:54:58;5.80;;;3.23;;
13641;SDS011;6894;52.196;9.904;2023-02-28T01:57:27;7.03;;;3.37;;
13641;SDS011;6894;52.196;9.904;2023-02-28T02:00:03;5.30;;;3.80;;
13641;SDS011;6894;52.196;9.904;2023-02-28T02:02:34;4.97;;;3.20;;
13641;SDS011;6894;52.196;9.904;2023-02-28T02:05:04;4.23;;;3.83;;
13641;SDS011;6894;52.196;9.904;2023-02-28T02:07:33;6.03;;;3.90;;
13641;SDS011;6894;52.196;9.904;2023-02-28T02:10:03;5.37;;;3.20;;
13641;SDS011;6894;52.196;9.904;2023-02-28T02:12:36;5.47;;;3.30;;
13641;SDS011;6894;52.196;9.904;2023-02-28T02:15:19;12.30;;;5.80;;
13641;SDS011;6894;52.196;9.904;2023-02-28T02:17:52;5.57;;;3.30;;
13641;SDS011;6894;52.196;9.904;2023-02-28T02:20:36;6.33;;;3.63;;
13641;SDS011;6894;52.196;9.904;2023-02-28T02:23:39;7.30;;;3.30;;
13641;SDS011;6894;52.196;9.904;2023-02-28T02:29:35;4.73;;;3.30;;
13641;SDS011;6894;52.196;9.904;2023-02-28T02:35:07;5.13;;;3.60;;
13641;SDS011;6894;52.196;9.904;2023-02-28T02:37:41;6.60;;;3.80;;
13641;SDS011;6894;52.196;9.904;2023-02-28T02:40:14;5.23;;;3.60;;
13641;SDS011;6894;52.196;9.904;2023-02-28T02:42:45;4.67;;;3.30;;
13641;SDS011;6894;52.196;9.904;2023-02-28T02:45:17;3.93;;;3.33;;
13641;SDS011;6894;52.196;9.904;2023-02-28T02:47:48;4.27;;;3.17;;
13641;SDS011;6894;52.196;9.904;2023-02-28T02:50:19;4.80;;;3.27;;
13641;SDS011;6894;52.196;9.904;2023-02-28T02:52:51;6.13;;;2.67;;
13641;SDS011;6894;52.196;9.904;2023-02-28T02:55:21;5.27;;;3.13;;
13641;SDS011;6894;52.196;9.904;2023-02-28T02:57:49;6.57;;;3.10;;
13641;SDS011;6894;52.196;9.904;2023-02-28T03:00:20;6.80;;;3.53;;
13641;SDS011;6894;52.196;9.904;2023-02-28T03:02:51;4.87;;;3.10;;
13641;SDS011;6894;52.196;9.904;2023-02-28T03:05:23;6.23;;;3.70;;
13641;SDS011;6894;52.196;9.904;2023-02-28T03:07:53;4.67;;;3.70;;
13641;SDS011;6894;52.196;9.904;2023-02-28T03:13:12;6.40;;;3.40;;
13641;SDS011;6894;52.196;9.904;2023-02-28T03:15:54;4.17;;;2.87;;
13641;SDS011;6894;52.196;9.904;2023-02-28T03:18:36;6.27;;;3.30;;
13641;SDS011;6894;52.196;9.904;2023-02-28T03:21:12;5.50;;;2.90;;
13641;SDS011;6894;52.196;9.904;2023-02-28T03:23:48;3.93;;;2.80;;
13641;SDS011;6894;52.196;9.904;2023-02-28T03:26:22;5.17;;;2.67;;
13641;SDS011;6894;52.196;9.904;2023-02-28T03:28:52;3.53;;;2.83;;
13641;SDS011;6894;52.196;9.904;2023-02-28T03:31:27;3.20;;;2.90;;
13641;SDS011;6894;52.196;9.904;2023-02-28T03:33:58;4.60;;;2.70;;
13641;SDS011;6894;52.196;9.904;2023-02-28T03:36:30;7.37;;;3.20;;
13641;SDS011;6894;52.196;9.904;2023-02-28T03:39:09;4.80;;;3.00;;
13641;SDS011;6894;52.196;9.904;2023-02-28T03:41:41;3.77;;;2.43;;
13641;SDS011;6894;52.196;9.904;2023-02-28T03:44:13;4.33;;;2.77;;
13641;SDS011;6894;52.196;9.904;2023-02-28T03:46:43;6.77;;;3.30;;
13641;SDS011;6894;52.196;9.904;2023-02-28T03:49:15;3.57;;;2.70;;
13641;SDS011;6894;52.196;9.904;2023-02-28T03:51:45;4.43;;;2.90;;
13641;SDS011;6894;52.196;9.904;2023-02-28T03:54:15;3.23;;;2.63;;
13641;SDS011;6894;52.196;9.904;2023-02-28T03:56:47;3.20;;;2.60;;
13641;SDS011;6894;52.196;9.904;2023-02-28T03:59:18;6.17;;;2.63;;
13641;SDS011;6894;52.196;9.904;2023-02-28T04:01:49;4.50;;;2.77;;
13641;SDS011;6894;52.196;9.904;2023-02-28T04:04:16;4.73;;;2.67;;
13641;SDS011;6894;52.196;9.904;2023-02-28T04:06:45;4.83;;;2.90;;
13641;SDS011;6894;52.196;9.904;2023-02-28T04:09:15;4.27;;;3.30;;
13641;SDS011;6894;52.196;9.904;2023-02-28T04:11:42;4.00;;;2.40;;
13641;SDS011;6894;52.196;9.904;2023-02-28T04:14:11;4.00;;;2.40;;
13641;SDS011;6894;52.196;9.904;2023-02-28T04:16:39;4.73;;;3.03;;
13641;SDS011;6894;52.196;9.904;2023-02-28T04:19:07;3.73;;;2.40;;
13641;SDS011;6894;52.196;9.904;2023-02-28T04:21:36;3.10;;;2.30;;
13641;SDS011;6894;52.196;9.904;2023-02-28T04:24:06;7.70;;;3.10;;
13641;SDS011;6894;52.196;9.904;2023-02-28T04:26:39;3.50;;;2.70;;
13641;SDS011;6894;52.196;9.904;2023-02-28T04:29:08;4.10;;;2.80;;
13641;SDS011;6894;52.196;9.904;2023-02-28T04:31:36;4.17;;;2.60;;
13641;SDS011;6894;52.196;9.904;2023-02-28T04:34:03;4.70;;;2.70;;
13641;SDS011;6894;52.196;9.904;2023-02-28T04:36:31;3.80;;;2.70;;
13641;SDS011;6894;52.196;9.904;2023-02-28T04:38:58;3.70;;;3.07;;
13641;SDS011;6894;52.196;9.904;2023-02-28T04:41:26;3.27;;;2.97;;
13641;SDS011;6894;52.196;9.904;2023-02-28T04:43:52;6.40;;;3.23;;
13641;SDS011;6894;52.196;9.904;2023-02-28T04:46:21;5.40;;;3.30;;
13641;SDS011;6894;52.196;9.904;2023-02-28T04:48:48;5.83;;;3.23;;
13641;SDS011;6894;52.196;9.904;2023-02-28T04:51:16;6.40;;;2.77;;
13641;SDS011;6894;52.196;9.904;2023-02-28T04:53:44;6.23;;;3.30;;
13641;SDS011;6894;52.196;9.904;2023-02-28T04:56:12;3.83;;;2.80;;
13641;SDS011;6894;52.196;9.904;2023-02-28T04:58:42;3.30;;;2.40;;
13641;SDS011;6894;52.196;9.904;2023-02-28T05:01:15;4.57;;;2.40;;
13641;SDS011;6894;52.196;9.904;2023-02-28T05:03:44;4.30;;;2.50;;
13641;SDS011;6894;52.196;9.904;2023-02-28T05:06:11;3.80;;;2.47;;
13641;SDS011;6894;52.196;9.904;2023-02-28T05:08:39;5.07;;;2.43;;
13641;SDS011;6894;52.196;9.904;2023-02-28T05:11:07;3.77;;;2.80;;
13641;SDS011;6894;52.196;9.904;2023-02-28T05:13:39;2.93;;;2.63;;
13641;SDS011;6894;52.196;9.904;2023-02-28T05:16:07;3.43;;;2.67;;
13641;SDS011;6894;52.196;9.904;2023-02-28T05:18:34;5.33;;;2.50;;
13641;SDS011;6894;52.196;9.904;2023-02-28T05:21:00;4.23;;;3.03;;
13641;SDS011;6894;52.196;9.904;2023-02-28T05:23:28;4.17;;;2.60;;
13641;SDS011;6894;52.196;9.904;2023-02-28T05:25:55;4.87;;;2.80;;
13641;SDS011;6894;52.196;9.904;2023-02-28T05:28:22;2.93;;;2.63;;
13641;SDS011;6894;52.196;9.904;2023-02-28T05:30:49;3.83;;;2.00;;
13641;SDS011;6894;52.196;9.904;2023-02-28T05:33:17;10.53;;;4.17;;
13641;SDS011;6894;52.196;9.904;2023-02-28T05:35:44;8.70;;;4.50;;
13641;SDS011;6894;52.196;9.904;2023-02-28T05:38:11;8.13;;;4.87;;
13641;SDS011;6894;52.196;9.904;2023-02-28T05:40:38;8.87;;;5.03;;
13641;SDS011;6894;52.196;9.904;2023-02-28T05:43:05;11.67;;;5.10;;
13641;SDS011;6894;52.196;9.904;2023-02-28T05:45:32;6.47;;;4.50;;
13641;SDS011;6894;52.196;9.904;2023-02-28T05:47:58;7.87;;;4.73;;
13641;SDS011;6894;52.196;9.904;2023-02-28T05:50:26;9.43;;;5.93;;
13641;SDS011;6894;52.196;9.904;2023-02-28T05:52:53;7.13;;;4.97;;
13641;SDS011;6894;52.196;9.904;2023-02-28T05:55:20;9.60;;;5.30;;
13641;SDS011;6894;52.196;9.904;2023-02-28T05:57:47;8.47;;;5.50;;
13641;SDS011;6894;52.196;9.904;2023-02-28T06:00:14;7.13;;;5.20;;
13641;SDS011;6894;52.196;9.904;2023-02-28T06:02:42;8.57;;;6.00;;
13641;SDS011;6894;52.196;9.904;2023-02-28T06:05:11;9.13;;;5.93;;
13641;SDS011;6894;52.196;9.904;2023-02-28T06:07:41;9.97;;;6.03;;
13641;SDS011;6894;52.196;9.904;2023-02-28T06:10:09;7.83;;;6.30;;
13641;SDS011;6894;52.196;9.904;2023-02-28T06:12:36;8.97;;;5.27;;
13641;SDS011;6894;52.196;9.904;2023-02-28T06:15:04;7.80;;;5.50;;
13641;SDS011;6894;52.196;9.904;2023-02-28T06:17:31;13.37;;;8.23;;
13641;SDS011;6894;52.196;9.904;2023-02-28T06:19:58;8.00;;;5.40;;
13641;SDS011;6894;52.196;9.904;2023-02-28T06:22:25;7.00;;;3.30;;
13641;SDS011;6894;52.196;9.904;2023-02-28T06:24:53;5.30;;;3.57;;
13641;SDS011;6894;52.196;9.904;2023-02-28T06:27:20;5.80;;;4.17;;
13641;SDS011;6894;52.196;9.904;2023-02-28T06:29:47;11.60;;;5.97;;
13641;SDS011;6894;52.196;9.904;2023-02-28T06:32:13;11.93;;;6.13;;
13641;SDS011;6894;52.196;9.904;2023-02-28T06:34:40;8.53;;;5.73;;
13641;SDS011;6894;52.196;9.904;2023-02-28T06:37:07;5.63;;;4.20;;
13641;SDS011;6894;52.196;9.904;2023-02-28T06:39:34;10.63;;;5.63;;
13641;SDS011;6894;52.196;9.904;2023-02-28T06:42:02;7.87;;;5.03;;
13641;SDS011;6894;52.196;9.904;2023-02-28T06:44:29;6.87;;;5.00;;
13641;SDS011;6894;52.196;9.904;2023-02-28T06:47:00;8.30;;;5.40;;
13641;SDS011;6894;52.196;9.904;2023-02-28T06:49:28;6.83;;;4.50;;
13641;SDS011;6894;52.196;9.904;2023-02-28T06:51:55;6.53;;;4.63;;
13641;SDS011;6894;52.196;9.904;2023-02-28T06:54:22;7.53;;;6.00;;
13641;SDS011;6894;52.196;9.904;2023-02-28T06:56:49;8.97;;;5.90;;
13641;SDS011;6894;52.196;9.904;2023-02-28T06:59:18;7.77;;;6.20;;
13641;SDS011;6894;52.196;9.904;2023-02-28T07:01:44;7.83;;;5.60;;
13641;SDS011;6894;52.196;9.904;2023-02-28T07:04:11;10.23;;;6.97;;
13641;SDS011;6894;52.196;9.904;2023-02-28T07:06:39;12.33;;;9.07;;
13641;SDS011;6894;52.196;9.904;2023-02-28T07:09:05;15.23;;;10.20;;
13641;SDS011;6894;52.196;9.904;2023-02-28T07:11:32;7.27;;;5.53;;
13641;SDS011;6894;52.196;9.904;2023-02-28T07:13:59;7.13;;;5.53;;
13641;SDS011;6894;52.196;9.904;2023-02-28T07:16:27;13.13;;;6.73;;
13641;SDS011;6894;52.196;9.904;2023-02-28T07:18:54;11.50;;;7.50;;
13641;SDS011;6894;52.196;9.904;2023-02-28T07:21:21;10.37;;;7.67;;
13641;SDS011;6894;52.196;9.904;2023-02-28T07:23:48;9.90;;;6.07;;
13641;SDS011;6894;52.196;9.904;2023-02-28T07:26:17;8.67;;;6.33;;
13641;SDS011;6894;52.196;9.904;2023-02-28T07:28:45;8.50;;;7.33;;
13641;SDS011;6894;52.196;9.904;2023-02-28T07:31:13;12.07;;;9.00;;
13641;SDS011;6894;52.196;9.904;2023-02-28T07:33:42;9.00;;;7.33;;
13641;SDS011;6894;52.196;9.904;2023-02-28T07:36:09;5.03;;;4.03;;
13641;SDS011;6894;52.196;9.904;2023-02-28T07:38:40;9.13;;;4.70;;
13641;SDS011;6894;52.196;9.904;2023-02-28T07:41:08;9.17;;;7.03;;
13641;SDS011;6894;52.196;9.904;2023-02-28T07:43:35;8.90;;;7.67;;
13641;SDS011;6894;52.196;9.904;2023-02-28T07:46:03;16.73;;;11.07;;
13641;SDS011;6894;52.196;9.904;2023-02-28T07:48:30;12.47;;;9.20;;
13641;SDS011;6894;52.196;9.904;2023-02-28T07:50:59;8.27;;;6.70;;
13641;SDS011;6894;52.196;9.904;2023-02-28T07:53:27;8.97;;;7.00;;
13641;SDS011;6894;52.196;9.904;2023-02-28T07:55:54;6.57;;;5.33;;
13641;SDS011;6894;52.196;9.904;2023-02-28T07:58:22;9.77;;;5.90;;
13641;SDS011;6894;52.196;9.904;2023-02-28T08:00:49;9.00;;;5.83;;
13641;SDS011;6894;52.196;9.904;2023-02-28T08:03:16;9.93;;;6.37;;
13641;SDS011;6894;52.196;9.904;2023-02-28T08:05:44;16.63;;;9.37;;
13641;SDS011;6894;52.196;9.904;2023-02-28T08:08:12;8.00;;;5.63;;
13641;SDS011;6894;52.196;9.904;2023-02-28T08:10:38;12.77;;;6.83;;
13641;SDS011;6894;52.196;9.904;2023-02-28T08:13:05;9.93;;;5.20;;
13641;SDS011;6894;52.196;9.904;2023-02-28T08:15:32;10.20;;;5.40;;
13641;SDS011;6894;52.196;9.904;2023-02-28T08:17:59;5.37;;;4.70;;
13641;SDS011;6894;52.196;9.904;2023-02-28T08:20:26;9.93;;;5.47;;
13641;SDS011;6894;52.196;9.904;2023-02-28T08:22:53;7.97;;;4.77;;
13641;SDS011;6894;52.196;9.904;2023-02-28T08:25:21;6.20;;;5.60;;
13641;SDS011;6894;52.196;9.904;2023-02-28T08:27:50;5.83;;;4.20;;
13641;SDS011;6894;52.196;9.904;2023-02-28T08:30:17;20.23;;;5.37;;
13641;SDS011;6894;52.196;9.904;2023-02-28T08:32:44;6.67;;;4.57;;
13641;SDS011;6894;52.196;9.904;2023-02-28T08:35:11;6.70;;;5.10;;
13641;SDS011;6894;52.196;9.904;2023-02-28T08:37:38;7.63;;;5.40;;
13641;SDS011;6894;52.196;9.904;2023-02-28T08:40:05;8.07;;;5.27;;
13641;SDS011;6894;52.196;9.904;2023-02-28T08:42:34;6.53;;;4.50;;
13641;SDS011;6894;52.196;9.904;2023-02-28T08:45:01;6.20;;;4.47;;
13641;SDS011;6894;52.196;9.904;2023-02-28T08:47:29;5.73;;;3.87;;
13641;SDS011;6894;52.196;9.904;2023-02-28T08:49:55;6.37;;;4.17;;
13641;SDS011;6894;52.196;9.904;2023-02-28T08:52:22;3.83;;;3.00;;
13641;SDS011;6894;52.196;9.904;2023-02-28T08:54:49;4.47;;;3.57;;
13641;SDS011;6894;52.196;9.904;2023-02-28T08:57:16;4.13;;;2.87;;
13641;SDS011;6894;52.196;9.904;2023-02-28T08:59:44;3.40;;;3.07;;
13641;SDS011;6894;52.196;9.904;2023-02-28T09:02:12;3.13;;;2.60;;
13641;SDS011;6894;52.196;9.904;2023-02-28T09:04:39;4.23;;;3.13;;
13641;SDS011;6894;52.196;9.904;2023-02-28T09:07:06;3.43;;;2.80;;
13641;SDS011;6894;52.196;9.904;2023-02-28T09:09:33;3.27;;;2.83;;
13641;SDS011;6894;52.196;9.904;2023-02-28T09:12:00;3.17;;;2.73;;
13641;SDS011;6894;52.196;9.904;2023-02-28T09:14:27;4.83;;;3.17;;
13641;SDS011;6894;52.196;9.904;2023-02-28T09:16:55;4.27;;;2.90;;
13641;SDS011;6894;52.196;9.904;2023-02-28T09:19:22;3.73;;;2.93;;
13641;SDS011;6894;52.196;9.904;2023-02-28T09:21:48;4.47;;;2.93;;
13641;SDS011;6894;52.196;9.904;2023-02-28T09:24:15;3.90;;;2.70;;
13641;SDS011;6894;52.196;9.904;2023-02-28T09:26:43;3.00;;;2.53;;
13641;SDS011;6894;52.196;9.904;2023-02-28T09:29:09;7.30;;;2.90;;
13641;SDS011;6894;52.196;9.904;2023-02-28T09:31:37;4.27;;;2.70;;
13641;SDS011;6894;52.196;9.904;2023-02-28T09:34:05;3.93;;;2.97;;
13641;SDS011;6894;52.196;9.904;2023-02-28T09:36:31;3.37;;;2.67;;
13641;SDS011;6894;52.196;9.904;2023-02-28T09:38:59;3.33;;;2.40;;
13641;SDS011;6894;52.196;9.904;2023-02-28T09:41:26;4.27;;;2.80;;
13641;SDS011;6894;52.196;9.904;2023-02-28T09:44:00;3.23;;;2.17;;
13641;SDS011;6894;52.196;9.904;2023-02-28T09:46:31;4.60;;;2.37;;
13641;SDS011;6894;52.196;9.904;2023-02-28T09:49:00;3.43;;;2.23;;
13641;SDS011;6894;52.196;9.904;2023-02-28T09:51:35;3.50;;;2.17;;
13641;SDS011;6894;52.196;9.904;2023-02-28T09:54:10;2.73;;;1.80;;
13641;SDS011;6894;52.196;9.904;2023-02-28T09:56:44;2.63;;;1.80;;
13641;SDS011;6894;52.196;9.904;2023-02-28T09:59:18;2.73;;;1.70;;
13641;SDS011;6894;52.196;9.904;2023-02-28T10:01:56;3.50;;;2.23;;
13641;SDS011;6894;52.196;9.904;2023-02-28T10:04:35;2.00;;;1.80;;
13641;SDS011;6894;52.196;9.904;2023-02-28T10:07:12;2.30;;;2.10;;
13641;SDS011;6894;52.196;9.904;2023-02-28T10:09:45;3.03;;;2.23;;
13641;SDS011;6894;52.196;9.904;2023-02-28T10:12:15;6.80;;;2.20;;
13641;SDS011;6894;52.196;9.904;2023-02-28T10:14:44;3.50;;;2.30;;
13641;SDS011;6894;52.196;9.904;2023-02-28T10:17:14;2.27;;;1.90;;
13641;SDS011;6894;52.196;9.904;2023-02-28T10:19:47;4.00;;;2.20;;
13641;SDS011;6894;52.196;9.904;2023-02-28T10:22:24;2.87;;;1.97;;
13641;SDS011;6894;52.196;9.904;2023-02-28T10:24:55;5.20;;;2.33;;
13641;SDS011;6894;52.196;9.904;2023-02-28T10:27:28;3.13;;;2.43;;
13641;SDS011;6894;52.196;9.904;2023-02-28T10:29:57;3.70;;;2.63;;
13641;SDS011;6894;52.196;9.904;2023-02-28T10:32:26;3.77;;;2.23;;
13641;SDS011;6894;52.196;9.904;2023-02-28T10:34:57;4.43;;;2.20;;
13641;SDS011;6894;52.196;9.904;2023-02-28T10:37:28;2.30;;;2.10;;
13641;SDS011;6894;52.196;9.904;2023-02-28T10:39:56;3.90;;;2.63;;
13641;SDS011;6894;52.196;9.904;2023-02-28T10:42:24;3.17;;;2.17;;
13641;SDS011;6894;52.196;9.904;2023-02-28T10:45:05;3.20;;;2.40;;
13641;SDS011;6894;52.196;9.904;2023-02-28T10:47:37;2.73;;;1.93;;
13641;SDS011;6894;52.196;9.904;2023-02-28T10:50:25;2.97;;;2.50;;
13641;SDS011;6894;52.196;9.904;2023-02-28T10:52:56;2.90;;;2.30;;
13641;SDS011;6894;52.196;9.904;2023-02-28T10:55:34;5.07;;;2.10;;
13641;SDS011;6894;52.196;9.904;2023-02-28T10:58:01;3.10;;;1.73;;
13641;SDS011;6894;52.196;9.904;2023-02-28T11:00:31;2.37;;;1.80;;
13641;SDS011;6894;52.196;9.904;2023-02-28T11:03:00;3.50;;;2.27;;
13641;SDS011;6894;52.196;9.904;2023-02-28T11:05:28;2.30;;;2.10;;
13641;SDS011;6894;52.196;9.904;2023-02-28T11:07:59;4.53;;;2.57;;
13641;SDS011;6894;52.196;9.904;2023-02-28T11:10:31;3.33;;;2.00;;
13641;SDS011;6894;52.196;9.904;2023-02-28T11:13:00;3.03;;;2.23;;
13641;SDS011;6894;52.196;9.904;2023-02-28T11:15:28;3.93;;;2.57;;
13641;SDS011;6894;52.196;9.904;2023-02-28T11:17:56;2.50;;;2.30;;
13641;SDS011;6894;52.196;9.904;2023-02-28T11:20:27;3.33;;;2.10;;
13641;SDS011;6894;52.196;9.904;2023-02-28T11:22:55;3.77;;;2.03;;
13641;SDS011;6894;52.196;9.904;2023-02-28T11:25:26;3.73;;;1.87;;
13641;SDS011;6894;52.196;9.904;2023-02-28T11:27:56;3.83;;;1.90;;
13641;SDS011;6894;52.196;9.904;2023-02-28T11:30:30;3.77;;;2.07;;
13641;SDS011;6894;52.196;9.904;2023-02-28T11:33:00;3.80;;;2.33;;
13641;SDS011;6894;52.196;9.904;2023-02-28T11:35:28;4.33;;;2.47;;
13641;SDS011;6894;52.196;9.904;2023-02-28T11:38:00;3.23;;;1.93;;
13641;SDS011;6894;52.196;9.904;2023-02-28T11:40:30;3.83;;;2.00;;
13641;SDS011;6894;52.196;9.904;2023-02-28T11:43:07;3.17;;;1.80;;
13641;SDS011;6894;52.196;9.904;2023-02-28T11:45:49;5.47;;;1.70;;
13641;SDS011;6894;52.196;9.904;2023-02-28T11:48:33;2.43;;;2.10;;
13641;SDS011;6894;52.196;9.904;2023-02-28T11:51:12;5.23;;;2.30;;
13641;SDS011;6894;52.196;9.904;2023-02-28T11:53:52;2.83;;;1.97;;
13641;SDS011;6894;52.196;9.904;2023-02-28T11:56:29;2.17;;;1.40;;
13641;SDS011;6894;52.196;9.904;2023-02-28T11:59:02;3.47;;;1.10;;
13641;SDS011;6894;52.196;9.904;2023-02-28T12:01:41;2.73;;;1.90;;
13641;SDS011;6894;52.196;9.904;2023-02-28T12:04:25;3.00;;;1.60;;
13641;SDS011;6894;52.196;9.904;2023-02-28T12:07:00;2.40;;;1.27;;
13641;SDS011;6894;52.196;9.904;2023-02-28T12:09:40;1.87;;;1.40;;
13641;SDS011;6894;52.196;9.904;2023-02-28T12:15:17;1.90;;;1.63;;
13641;SDS011;6894;52.196;9.904;2023-02-28T12:17:57;1.80;;;1.23;;
13641;SDS011;6894;52.196;9.904;2023-02-28T12:20:33;2.77;;;1.40;;
13641;SDS011;6894;52.196;9.904;2023-02-28T12:23:10;2.13;;;1.50;;
13641;SDS011;6894;52.196;9.904;2023-02-28T12:25:56;2.87;;;1.40;;
13641;SDS011;6894;52.196;9.904;2023-02-28T12:28:29;2.60;;;1.40;;
13641;SDS011;6894;52.196;9.904;2023-02-28T12:31:00;2.03;;;1.23;;
13641;SDS011;6894;52.196;9.904;2023-02-28T12:33:33;2.00;;;1.30;;
13641;SDS011;6894;52.196;9.904;2023-02-28T12:36:05;1.90;;;1.43;;
13641;SDS011;6894;52.196;9.904;2023-02-28T12:38:38;1.77;;;1.30;;
13641;SDS011;6894;52.196;9.904;2023-02-28T12:41:11;1.53;;;1.33;;
13641;SDS011;6894;52.196;9.904;2023-02-28T12:43:43;3.03;;;1.63;;
13641;SDS011;6894;52.196;9.904;2023-02-28T12:46:12;2.83;;;1.40;;
13641;SDS011;6894;52.196;9.904;2023-02-28T12:48:44;1.67;;;1.53;;
13641;SDS011;6894;52.196;9.904;2023-02-28T12:51:14;1.70;;;1.50;;
13641;SDS011;6894;52.196;9.904;2023-02-28T12:53:47;2.17;;;1.40;;
13641;SDS011;6894;52.196;9.904;2023-02-28T12:56:24;2.03;;;1.30;;
13641;SDS011;6894;52.196;9.904;2023-02-28T12:59:01;1.57;;;1.30;;
13641;SDS011;6894;52.196;9.904;2023-02-28T13:01:35;2.40;;;1.73;;
13641;SDS011;6894;52.196;9.904;2023-02-28T13:07:29;1.80;;;1.30;;
13641;SDS011;6894;52.196;9.904;2023-02-28T13:10:14;2.27;;;1.43;;
13641;SDS011;6894;52.196;9.904;2023-02-28T13:12:48;2.30;;;1.53;;
13641;SDS011;6894;52.196;9.904;2023-02-28T13:15:18;2.03;;;1.40;;
13641;SDS011;6894;52.196;9.904;2023-02-28T13:17:49;3.67;;;1.37;;
13641;SDS011;6894;52.196;9.904;2023-02-28T13:20:19;1.80;;;1.43;;
13641;SDS011;6894;52.196;9.904;2023-02-28T13:22:48;2.53;;;1.60;;
13641;SDS011;6894;52.196;9.904;2023-02-28T13:31:19;2.37;;;1.67;;
13641;SDS011;6894;52.196;9.904;2023-02-28T13:34:05;2.57;;;2.03;;
13641;SDS011;6894;52.196;9.904;2023-02-28T13:36:39;1.50;;;1.40;;
13641;SDS011;6894;52.196;9.904;2023-02-28T13:42:22;2.37;;;1.53;;
13641;SDS011;6894;52.196;9.904;2023-02-28T13:47:55;2.50;;;1.70;;
13641;SDS011;6894;52.196;9.904;2023-02-28T13:50:29;2.33;;;2.13;;
13641;SDS011;6894;52.196;9.904;2023-02-28T13:56:18;2.10;;;1.73;;
13641;SDS011;6894;52.196;9.904;2023-02-28T13:58:54;3.07;;;1.90;;
13641;SDS011;6894;52.196;9.904;2023-02-28T14:01:28;2.40;;;2.00;;
13641;SDS011;6894;52.196;9.904;2023-02-28T14:04:29;3.87;;;1.80;;
13641;SDS011;6894;52.196;9.904;2023-02-28T14:07:17;2.37;;;1.67;;
13641;SDS011;6894;52.196;9.904;2023-02-28T14:09:49;2.50;;;1.50;;
13641;SDS011;6894;52.196;9.904;2023-02-28T14:15:27;2.50;;;1.80;;
13641;SDS011;6894;52.196;9.904;2023-02-28T14:18:16;5.97;;;4.83;;
13641;SDS011;6894;52.196;9.904;2023-02-28T14:20:51;3.73;;;1.93;;
13641;SDS011;6894;52.196;9.904;2023-02-28T14:23:25;2.77;;;2.57;;
13641;SDS011;6894;52.196;9.904;2023-02-28T14:26:14;2.37;;;1.80;;
13641;SDS011;6894;52.196;9.904;2023-02-28T14:28:59;3.07;;;1.73;;
13641;SDS011;6894;52.196;9.904;2023-02-28T14:31:43;3.20;;;2.30;;
13641;SDS011;6894;52.196;9.904;2023-02-28T14:34:24;2.97;;;1.80;;
13641;SDS011;6894;52.196;9.904;2023-02-28T14:37:02;2.80;;;1.80;;
13641;SDS011;6894;52.196;9.904;2023-02-28T14:39:30;2.70;;;2.10;;
13641;SDS011;6894;52.196;9.904;2023-02-28T14:41:59;2.33;;;1.90;;
13641;SDS011;6894;52.196;9.904;2023-02-28T14:44:29;4.30;;;2.60;;
13641;SDS011;6894;52.196;9.904;2023-02-28T14:46:57;4.70;;;2.40;;
13641;SDS011;6894;52.196;9.904;2023-02-28T14:49:29;2.73;;;1.90;;
13641;SDS011;6894;52.196;9.904;2023-02-28T14:52:03;2.23;;;2.03;;
13641;SDS011;6894;52.196;9.904;2023-02-28T14:54:34;2.83;;;2.27;;
13641;SDS011;6894;52.196;9.904;2023-02-28T14:57:01;2.27;;;1.70;;
13641;SDS011;6894;52.196;9.904;2023-02-28T14:59:29;3.73;;;1.70;;
13641;SDS011;6894;52.196;9.904;2023-02-28T15:02:17;2.13;;;1.90;;
13641;SDS011;6894;52.196;9.904;2023-02-28T15:04:52;2.83;;;1.87;;
13641;SDS011;6894;52.196;9.904;2023-02-28T15:07:22;3.03;;;2.20;;
13641;SDS011;6894;52.196;9.904;2023-02-28T15:10:06;3.40;;;2.00;;
13641;SDS011;6894;52.196;9.904;2023-02-28T15:12:34;2.73;;;1.80;;
13641;SDS011;6894;52.196;9.904;2023-02-28T15:15:01;2.07;;;1.60;;
13641;SDS011;6894;52.196;9.904;2023-02-28T15:17:28;3.70;;;2.17;;
13641;SDS011;6894;52.196;9.904;2023-02-28T15:19:55;3.47;;;2.63;;
13641;SDS011;6894;52.196;9.904;2023-02-28T15:22:26;3.37;;;2.40;;
13641;SDS011;6894;52.196;9.904;2023-02-28T15:24:57;2.37;;;1.90;;
13641;SDS011;6894;52.196;9.904;2023-02-28T15:27:25;3.27;;;2.50;;
13641;SDS011;6894;52.196;9.904;2023-02-28T15:29:57;2.90;;;1.70;;
13641;SDS011;6894;52.196;9.904;2023-02-28T15:32:27;2.83;;;2.23;;
13641;SDS011;6894;52.196;9.904;2023-02-28T15:34:56;4.27;;;2.40;;
13641;SDS011;6894;52.196;9.904;2023-02-28T15:37:38;3.80;;;2.27;;
13641;SDS011;6894;52.196;9.904;2023-02-28T15:40:11;7.03;;;2.07;;
13641;SDS011;6894;52.196;9.904;2023-02-28T15:42:40;3.93;;;2.87;;
13641;SDS011;6894;52.196;9.904;2023-02-28T15:47:54;7.30;;;3.23;;
13641;SDS011;6894;52.196;9.904;2023-02-28T15:50:21;5.23;;;2.70;;
13641;SDS011;6894;52.196;9.904;2023-02-28T15:52:51;3.03;;;2.70;;
13641;SDS011;6894;52.196;9.904;2023-02-28T15:55:18;2.63;;;2.13;;
13641;SDS011;6894;52.196;9.904;2023-02-28T15:57:48;5.63;;;3.07;;